Terminal Aerodrome Forecast
Issued by NWS El Paso, TX

Home | Current Version | Previous Version | Text Only | Print | Product List | Glossary On
Versions: 1 2 3 4 5 6 7 8 9 10 11 12 13 14
602
FTUS44 KEPZ 202320
TAFELP
TAF
KELP 202320Z 2100/2124 26020G29KT P6SM SCT060 BKN150
     FM210300 24018G25KT P6SM VCSH BKN050 OVC120
     FM210900 23025G35KT 6SM -SHRA SCT015 BKN050
     FM211200 25030G39KT P6SM FEW050 BKN100 OVC150
     FM211700 25033G43KT 4SM BLDU BKN050 OVC100
     FM212300 26039G50KT 4SM BLDU SCT050=

USA.gov is the U.S. government's official web portal to all federal, state and local government web resources and services.